CheckWX is a tool to help pilots better visualize weather data.  It is not intended as a substitute for an official pre-flight weather briefing.

09:40:30 UTC

KPWC METAR
Pine River Regional Airport
Pine River, Minnesota, USA
Current

6 mins ago

KPWC 200935Z AUTO 00000KT 10SM OVC050 M13/M17 A3008 RMK AO2
Observed
Feb-20 @ 09:35 UTC
Visibility
16,093 meters
Flight Rules
VFR
Cloud Levels
  • Overcast at 5,000' AGL
Temperature
-13°C / 9°F
Dewpoint
-17°C / 1°F
Humidity
72%
Altimeter
30.08" Hg
Pressure
1018.62 hPa
Previous

25 mins ago

KPWC 200916Z AUTO 13003KT 10SM BKN050 M13/M17 A3009 RMK AO2
Observed
Feb-20 @ 09:16 UTC
Wind
  • 130° at 3 KTS
Visibility
16,093 meters
Flight Rules
VFR
Cloud Levels
  • Broken at 5,000' AGL
Temperature
-13°C / 9°F
Dewpoint
-17°C / 1°F
Humidity
72%
Altimeter
30.09" Hg
Pressure
1018.92 hPa
Previous

45 mins ago

KPWC 200856Z AUTO 14004KT 10SM CLR M14/M17 A3010 RMK AO2
Observed
Feb-20 @ 08:56 UTC
Wind
  • 140° at 4 KTS
Visibility
16,093 meters
Flight Rules
VFR
Cloud Levels
  • Clear skies
Temperature
-14°C / 7°F
Dewpoint
-17°C / 1°F
Humidity
78%
Altimeter
30.1" Hg
Pressure
1019.32 hPa